Gunyarra, Queensland

3:40 AM AEST on February 14, 2016 (GMT +1000)
Proserpine Mill | | Change Station
CLOSE
Current Station
Personal Weather Station
Location: Proserpine, Queensland
Elevation: 43 ft
Nearby Weather Stations

Elev 43 ft 20.40 °S, 148.58 °E | Updated 12 minutes ago

Scattered Clouds
Scattered Clouds
71.5 °F
Feels Like 71.5 °F
N
1.0
Wind Variable Wind from NW
Gusts 3.0 mph

Today
High -- | Low -- °F
--% Chance of Precip.
Yesterday
High -- | Low -- °F
Precip. -- in
Pressure 29.74 in
Visibility 6.2 miles
Clouds Scattered Clouds 8800 ft
Dew Point 69 °F
Humidity 92%
Rainfall 0.00 in
Snow Depth Not available.
5:56 AM 6:43 PM
Waxing Crescent, 32% visible
METAR YBHM 131730Z AUTO 18009KT 9999 // SCT088 25/21 Q1007
Pressure 29.74 in
Visibility 6.2 miles
Clouds Scattered Clouds 8800 ft
Dew Point 69 °F
Humidity 92%
Rainfall 0.00 in
Snow Depth Not available.
5:56 AM 6:43 PM
Waxing Crescent, 32% visible
METAR YBHM 131730Z AUTO 18009KT 9999 // SCT088 25/21 Q1007

10-Day Weather Forecast

Almanac

Astronomy

Feb. 14, 2016 Rise Set
Actual Time
Civil Twilight
Nautical Twilight
Astronomical Twilight
Moon
Length of Visible Light
Length of Day
Tomorrow will be .
, % of the Moon is Illuminated

Today's Extremes

Country Highs Country Lows

Community

WunderPhotos

Upload Photos

1,892,622 photos uploaded!

WunderBlog® & News

Nearby

Air Quality

  Air Quality AQ Index Pollutant
Not available.

Snow Depth

Station Depth Elevation

Earthquake Activity

City Distance Mag. Time & Date
Minimum magnitude displayed is 2.5.

Coastal Water Temperatures

Place Temperature

Stations

Nearby Weather Stations

Station Location Temp. Windchill Dew Point Humidity Wind Precip. Elev Updated Type